Time;durP1;ratioP1;P1;durP2;ratioP2;P2;SDS_P1;SDS_P2;PMS_P1;PMS_P2;Temp;Humidity;BMP_temperature;BMP_pressure;BME280_temperature;BME280_humidity;BME280_pressure;Samples;Min_cycle;Max_cycle;Signal;HPM_P1;HPM_P2
2023/05/13 00:01:41;;;;;;;;;;;13.00;99.90;;;;;;4896622;29;19973;-68
2023/05/13 00:04:07;;;;;;;;;;;13.00;99.90;;;;;;4880370;29;20263;-68
2023/05/13 00:06:33;;;;;;;;;;;12.90;99.90;;;;;;4896175;29;19927;-70
2023/05/13 00:08:59;;;;;;;;;;;12.90;99.90;;;;;;4880280;29;20392;-68
2023/05/13 00:11:25;;;;;;;;;;;12.90;99.90;;;;;;4895842;29;20384;-68
2023/05/13 00:13:50;;;;;;;;;;;12.90;99.90;;;;;;4895437;29;19934;-68
2023/05/13 00:16:16;;;;;;;;;;;12.80;99.90;;;;;;4894653;29;19934;-68
2023/05/13 00:18:41;;;;;;;;;;;12.80;99.90;;;;;;4895486;29;19928;-68
2023/05/13 00:21:07;;;;;;;;;;;12.80;99.90;;;;;;4911497;29;19928;-69
2023/05/13 00:23:33;;;;;;;;;;;12.70;99.90;;;;;;4896791;29;19938;-68
2023/05/13 00:25:58;;;;;;;;;;;12.70;99.90;;;;;;4895202;29;19928;-69
2023/05/13 00:28:24;;;;;;;;;;;12.70;99.90;;;;;;4895419;29;19928;-68
2023/05/13 00:30:50;;;;;;;;;;;12.70;99.90;;;;;;4910719;29;19927;-68
2023/05/13 00:33:16;;;;;;;;;;;12.70;99.90;;;;;;4896658;29;19967;-68
2023/05/13 00:35:42;;;;;;;;;;;12.70;99.90;;;;;;4894970;29;19927;-69
2023/05/13 00:38:07;;;;;;;;;;;12.70;99.90;;;;;;4879343;29;20394;-68
2023/05/13 00:40:36;;;;;;;;;;;12.60;99.90;;;;;;4911470;29;20077;-68
2023/05/13 00:43:01;;;;;;;;;;;12.60;99.90;;;;;;4896232;29;19933;-68
2023/05/13 00:45:27;;;;;;;;;;;12.60;99.90;;;;;;4896201;29;19927;-68
2023/05/13 00:47:53;;;;;;;;;;;12.50;99.90;;;;;;4894845;29;19931;-68
2023/05/13 00:50:18;;;;;;;;;;;12.50;99.90;;;;;;4896138;29;19938;-68
2023/05/13 00:52:45;;;;;;;;;;;12.60;99.90;;;;;;4894550;29;20265;-68
2023/05/13 00:55:10;;;;;;;;;;;12.50;99.90;;;;;;4896507;29;20326;-69
2023/05/13 00:57:37;;;;;;;;;;;12.50;99.90;;;;;;4895571;29;19975;-68
2023/05/13 01:00:04;;;;;;;;;;;12.40;99.90;;;;;;4895061;29;19982;-69
2023/05/13 01:02:45;;;;;;;;;;;12.40;99.90;;;;;;4898408;29;19928;-68
2023/05/13 01:05:17;;;;;;;;;;;12.40;99.90;;;;;;4914151;29;19927;-68
2023/05/13 01:08:19;;;;;;;;;;;12.30;99.90;;;;;;4897719;29;19951;-70
2023/05/13 01:10:50;;;;;;;;;;;12.30;99.90;;;;;;4862619;29;20333;-70
2023/05/13 01:13:23;;;;;;;;;;;12.30;99.90;;;;;;4895832;29;19927;-68
2023/05/13 01:15:52;;;;;;;;;;;12.20;99.90;;;;;;4898251;29;19936;-68
2023/05/13 01:18:19;;;;;;;;;;;12.20;99.90;;;;;;4899500;29;19987;-68
2023/05/13 01:20:45;;;;;;;;;;;12.10;99.90;;;;;;4898354;29;20092;-70
2023/05/13 01:23:11;;;;;;;;;;;12.00;99.90;;;;;;4899527;29;20014;-69
2023/05/13 01:25:37;;;;;;;;;;;12.00;99.90;;;;;;4899620;29;19949;-68
2023/05/13 01:28:02;;;;;;;;;;;12.00;99.90;;;;;;4899027;29;19935;-69
2023/05/13 01:30:29;;;;;;;;;;;12.00;99.90;;;;;;4898522;29;19928;-68
2023/05/13 01:32:55;;;;;;;;;;;12.00;99.90;;;;;;4913664;29;19927;-68
2023/05/13 01:35:22;;;;;;;;;;;11.90;99.90;;;;;;4914054;29;20027;-69
2023/05/13 01:37:49;;;;;;;;;;;11.90;99.90;;;;;;4882372;29;19927;-70
2023/05/13 01:40:14;;;;;;;;;;;11.90;99.90;;;;;;4898105;29;19935;-68
2023/05/13 01:42:40;;;;;;;;;;;11.90;99.90;;;;;;4882458;29;19928;-68
2023/05/13 01:45:06;;;;;;;;;;;11.90;99.90;;;;;;4881724;29;19928;-69
2023/05/13 01:47:31;;;;;;;;;;;11.90;99.90;;;;;;4899047;29;20386;-68
2023/05/13 01:49:57;;;;;;;;;;;11.90;99.90;;;;;;4882117;29;20396;-69
2023/05/13 01:52:22;;;;;;;;;;;11.90;99.90;;;;;;4899185;29;19936;-68
2023/05/13 01:54:48;;;;;;;;;;;11.90;99.90;;;;;;4897255;29;19975;-70
2023/05/13 01:57:14;;;;;;;;;;;11.80;99.90;;;;;;4882083;29;20374;-69
2023/05/13 01:59:39;;;;;;;;;;;11.80;99.90;;;;;;4898920;29;20030;-69
2023/05/13 02:02:05;;;;;;;;;;;11.80;99.90;;;;;;4881912;29;19934;-70
2023/05/13 02:04:31;;;;;;;;;;;11.70;99.90;;;;;;4897814;29;19928;-69
2023/05/13 02:06:56;;;;;;;;;;;11.70;99.90;;;;;;4896796;29;19927;-69
2023/05/13 02:09:22;;;;;;;;;;;11.70;99.90;;;;;;4882153;29;19962;-69
2023/05/13 02:11:47;;;;;;;;;;;11.70;99.90;;;;;;4913393;29;19927;-68
2023/05/13 02:14:13;;;;;;;;;;;11.70;99.90;;;;;;4912182;29;20046;-68
2023/05/13 02:16:39;;;;;;;;;;;11.70;99.90;;;;;;4881685;29;19978;-69
2023/05/13 02:19:05;;;;;;;;;;;11.60;99.90;;;;;;4897235;29;19931;-68
2023/05/13 02:21:31;;;;;;;;;;;11.60;99.90;;;;;;4897197;29;19936;-68
2023/05/13 02:23:56;;;;;;;;;;;11.50;99.90;;;;;;4898077;29;19928;-68
2023/05/13 02:26:22;;;;;;;;;;;11.50;99.90;;;;;;4881473;29;20026;-68
2023/05/13 02:28:47;;;;;;;;;;;11.50;99.90;;;;;;4913137;29;19934;-68
2023/05/13 02:31:13;;;;;;;;;;;11.50;99.90;;;;;;4896607;29;20005;-69
2023/05/13 02:33:38;;;;;;;;;;;11.50;99.90;;;;;;4898487;29;19928;-69
2023/05/13 02:36:04;;;;;;;;;;;11.40;99.90;;;;;;4896997;29;19975;-69
2023/05/13 02:38:30;;;;;;;;;;;11.40;99.90;;;;;;4897240;29;19932;-69
2023/05/13 02:40:55;;;;;;;;;;;11.30;99.90;;;;;;4896949;29;20258;-70
2023/05/13 02:43:22;;;;;;;;;;;11.30;99.90;;;;;;4881088;29;19928;-69
2023/05/13 02:45:48;;;;;;;;;;;11.20;99.90;;;;;;4881693;29;19934;-69
2023/05/13 02:48:13;;;;;;;;;;;11.10;99.90;;;;;;4896349;29;19931;-69
2023/05/13 02:50:39;;;;;;;;;;;11.10;99.90;;;;;;4898053;29;20030;-69
2023/05/13 02:53:05;;;;;;;;;;;11.10;99.90;;;;;;4912434;29;19928;-69
2023/05/13 02:55:31;;;;;;;;;;;11.00;99.90;;;;;;4912577;29;19991;-69
2023/05/13 02:57:56;;;;;;;;;;;11.00;99.90;;;;;;4912275;29;19975;-70
2023/05/13 03:00:22;;;;;;;;;;;10.90;99.90;;;;;;4912559;29;19982;-69
2023/05/13 03:02:47;;;;;;;;;;;10.90;99.90;;;;;;4912715;29;19927;-69
2023/05/13 03:05:13;;;;;;;;;;;10.80;99.90;;;;;;4865146;29;20440;-69
2023/05/13 03:07:39;;;;;;;;;;;10.80;99.90;;;;;;4880633;29;19928;-69
2023/05/13 03:10:05;;;;;;;;;;;10.80;99.90;;;;;;4897163;29;19991;-69
2023/05/13 03:12:30;;;;;;;;;;;10.80;99.90;;;;;;4896612;29;19928;-69
2023/05/13 03:14:56;;;;;;;;;;;10.80;99.90;;;;;;4912273;29;19935;-69
2023/05/13 03:17:22;;;;;;;;;;;10.70;99.90;;;;;;4897122;29;19934;-69
2023/05/13 03:19:47;;;;;;;;;;;10.70;99.90;;;;;;4880782;29;19935;-69
2023/05/13 03:22:13;;;;;;;;;;;10.70;99.90;;;;;;4896005;29;19932;-69
2023/05/13 03:24:38;;;;;;;;;;;10.70;99.90;;;;;;4896075;29;20037;-68
2023/05/13 03:27:04;;;;;;;;;;;10.70;99.90;;;;;;4911399;29;20297;-68
2023/05/13 03:29:30;;;;;;;;;;;10.70;99.90;;;;;;4896931;29;19950;-69
2023/05/13 03:31:55;;;;;;;;;;;10.60;99.90;;;;;;4895835;29;19978;-69
2023/05/13 03:34:21;;;;;;;;;;;10.60;99.90;;;;;;4880029;29;19935;-68
2023/05/13 03:36:46;;;;;;;;;;;10.60;99.90;;;;;;4895993;29;19979;-69
2023/05/13 03:39:12;;;;;;;;;;;10.50;99.90;;;;;;4895424;29;19935;-70
2023/05/13 03:41:38;;;;;;;;;;;10.50;99.90;;;;;;4895173;29;19927;-69
2023/05/13 03:44:03;;;;;;;;;;;10.50;99.90;;;;;;4895851;29;19935;-71
2023/05/13 03:46:29;;;;;;;;;;;10.50;99.90;;;;;;4895756;29;19927;-69
2023/05/13 03:48:54;;;;;;;;;;;10.50;99.90;;;;;;4896073;29;19939;-69
2023/05/13 03:51:20;;;;;;;;;;;10.50;99.90;;;;;;4895363;29;19986;-69
2023/05/13 03:53:46;;;;;;;;;;;10.50;99.90;;;;;;4896970;29;19928;-69
2023/05/13 03:56:12;;;;;;;;;;;10.60;99.90;;;;;;4895789;29;19927;-69
2023/05/13 03:58:38;;;;;;;;;;;10.50;99.90;;;;;;4895733;29;20026;-69
2023/05/13 04:01:03;;;;;;;;;;;10.60;99.90;;;;;;4911510;29;20019;-69
2023/05/13 04:03:30;;;;;;;;;;;10.60;99.90;;;;;;4911249;29;19927;-69
2023/05/13 04:05:55;;;;;;;;;;;10.60;99.90;;;;;;4895687;29;19934;-69
2023/05/13 04:08:21;;;;;;;;;;;10.60;99.90;;;;;;4894972;29;19944;-69
2023/05/13 04:10:47;;;;;;;;;;;10.60;99.90;;;;;;4896762;29;19927;-69
2023/05/13 04:13:12;;;;;;;;;;;10.60;99.90;;;;;;4895403;29;20290;-69
2023/05/13 04:15:38;;;;;;;;;;;10.70;99.90;;;;;;4911591;29;20334;-69
2023/05/13 04:18:03;;;;;;;;;;;10.70;99.90;;;;;;4895794;29;19935;-68
2023/05/13 04:20:29;;;;;;;;;;;10.70;99.90;;;;;;4911274;29;19928;-69
2023/05/13 04:22:55;;;;;;;;;;;10.70;99.90;;;;;;4911509;29;19928;-69
2023/05/13 04:25:20;;;;;;;;;;;10.80;99.90;;;;;;4910719;29;20285;-69
2023/05/13 04:27:46;;;;;;;;;;;10.80;99.90;;;;;;4896740;29;19928;-70
2023/05/13 04:30:12;;;;;;;;;;;10.90;99.90;;;;;;4896443;29;19963;-69
2023/05/13 04:32:38;;;;;;;;;;;10.90;99.90;;;;;;4880087;29;19934;-69
2023/05/13 04:35:05;;;;;;;;;;;11.00;99.90;;;;;;4895780;29;20022;-69
2023/05/13 04:37:31;;;;;;;;;;;11.30;99.90;;;;;;4897759;29;19923;-69
2023/05/13 04:39:56;;;;;;;;;;;11.70;99.90;;;;;;4915168;29;19934;-69
2023/05/13 04:42:22;;;;;;;;;;;12.20;99.90;;;;;;4898869;29;19982;-69
2023/05/13 04:44:47;;;;;;;;;;;12.70;99.90;;;;;;4914809;29;20409;-69
2023/05/13 04:47:13;;;;;;;;;;;13.20;99.90;;;;;;4898750;29;19932;-69
2023/05/13 04:49:38;;;;;;;;;;;13.70;99.90;;;;;;4899344;29;19928;-68
2023/05/13 04:52:04;;;;;;;;;;;14.10;99.90;;;;;;4899056;29;19927;-68
2023/05/13 04:54:30;;;;;;;;;;;14.50;99.90;;;;;;4899680;29;19928;-69
2023/05/13 04:56:56;;;;;;;;;;;;;;;;;;4883266;29;19983;-68
2023/05/13 04:59:22;;;;;;;;;;;;;;;;;;4899804;29;20437;-68
2023/05/13 05:01:48;;;;;;;;;;;;;;;;;;4899857;29;20006;-69
2023/05/13 05:04:14;;;;;;;;;;;;;;;;;;4898601;29;19938;-71
2023/05/13 05:06:40;;;;;;;;;;;;;;;;;;4914009;29;19927;-68
2023/05/13 05:09:05;;;;;;;;;;;15.00;99.90;;;;;;4914340;29;19933;-69
2023/05/13 05:11:31;;;;;;;;;;;17.10;99.90;;;;;;4914041;29;19928;-69
2023/05/13 05:13:56;;;;;;;;;;;17.30;99.90;;;;;;4898394;29;19934;-69
2023/05/13 05:16:22;;;;;;;;;;;17.50;99.90;;;;;;4898267;29;19983;-66
2023/05/13 05:18:48;;;;;;;;;;;17.80;99.90;;;;;;4883151;29;19934;-69
2023/05/13 05:21:13;;;;;;;;;;;18.10;99.90;;;;;;4914349;29;20366;-66
2023/05/13 05:23:39;;;;;;;;;;;18.30;99.90;;;;;;4897763;29;19971;-67
2023/05/13 05:26:04;;;;;;;;;;;18.50;99.90;;;;;;4913766;29;19928;-67
2023/05/13 05:28:30;;;;;;;;;;;18.80;99.90;;;;;;4913513;29;19927;-67
2023/05/13 05:30:56;;;;;;;;;;;;;;;;;;4882671;29;19995;-67
2023/05/13 05:33:22;;;;;;;;;;;;;;;;;;4913667;29;19928;-67
2023/05/13 05:35:48;;;;;;;;;;;19.10;99.90;;;;;;4898986;29;19927;-67
2023/05/13 05:38:14;;;;;;;;;;;20.10;99.90;;;;;;4899150;29;20404;-66
2023/05/13 05:40:44;;;;;;;;;;;20.30;99.90;;;;;;4898596;29;19931;-67
2023/05/13 05:43:12;;;;;;;;;;;20.60;99.90;;;;;;4882457;29;19927;-66
2023/05/13 05:45:38;;;;;;;;;;;20.90;99.90;;;;;;4897419;29;19935;-66
2023/05/13 05:48:05;;;;;;;;;;;21.40;99.90;;;;;;4897781;29;19928;-67
2023/05/13 05:50:31;;;;;;;;;;;21.70;99.90;;;;;;4897479;29;20326;-67
2023/05/13 05:52:58;;;;;;;;;;;21.80;99.90;;;;;;4897990;29;19927;-67
2023/05/13 05:55:24;;;;;;;;;;;22.10;99.90;;;;;;4913201;29;19983;-66
2023/05/13 05:57:49;;;;;;;;;;;22.20;99.90;;;;;;4898738;29;19927;-67
2023/05/13 06:00:15;;;;;;;;;;;22.40;99.90;;;;;;4897701;29;19979;-66
2023/05/13 06:02:41;;;;;;;;;;;22.40;99.90;;;;;;4897311;29;20006;-66
2023/05/13 06:05:07;;;;;;;;;;;22.80;99.90;;;;;;4898465;29;19927;-66
2023/05/13 06:07:32;;;;;;;;;;;22.70;99.90;;;;;;4898140;29;19928;-67
2023/05/13 06:09:58;;;;;;;;;;;22.80;99.90;;;;;;4898692;29;19934;-67
2023/05/13 06:12:23;;;;;;;;;;;23.10;99.90;;;;;;4912910;29;20071;-71
2023/05/13 06:14:49;;;;;;;;;;;23.30;99.90;;;;;;4913494;29;19950;-67
2023/05/13 06:17:15;;;;;;;;;;;23.40;99.90;;;;;;4898409;29;20385;-68
2023/05/13 06:19:44;;;;;;;;;;;23.60;99.90;;;;;;4898082;29;19927;-68
2023/05/13 06:22:09;;;;;;;;;;;23.40;99.90;;;;;;4897578;29;20014;-67
2023/05/13 06:24:36;;;;;;;;;;;23.60;99.90;;;;;;4898244;29;20404;-67
2023/05/13 06:27:01;;;;;;;;;;;23.90;99.90;;;;;;4897317;29;19928;-67
2023/05/13 06:29:27;;;;;;;;;;;24.00;99.70;;;;;;4896995;29;20463;-70
2023/05/13 06:31:53;;;;;;;;;;;24.10;98.80;;;;;;4897007;29;19943;-67
2023/05/13 06:34:18;;;;;;;;;;;24.40;99.90;;;;;;4898491;29;19927;-67
2023/05/13 06:36:44;;;;;;;;;;;24.40;99.80;;;;;;4912330;29;20538;-67
2023/05/13 06:39:10;;;;;;;;;;;24.40;98.80;;;;;;4898393;29;19927;-66
2023/05/13 06:41:36;;;;;;;;;;;24.50;98.90;;;;;;4896502;29;19934;-67
2023/05/13 06:44:02;;;;;;;;;;;24.90;97.20;;;;;;4897192;29;19927;-67
2023/05/13 06:46:30;;;;;;;;;;;25.30;97.40;;;;;;4881188;29;19934;-69
2023/05/13 06:48:57;;;;;;;;;;;25.70;98.20;;;;;;4896867;29;20309;-64
2023/05/13 06:51:24;;;;;;;;;;;25.80;97.10;;;;;;4912293;29;20362;-64
2023/05/13 06:53:52;;;;;;;;;;;26.10;97.50;;;;;;4897580;29;20023;-64
2023/05/13 06:56:18;;;;;;;;;;;26.30;97.30;;;;;;4881458;29;19931;-64
2023/05/13 06:58:44;;;;;;;;;;;26.00;95.00;;;;;;4865138;29;19974;-65
2023/05/13 07:01:09;;;;;;;;;;;26.10;95.70;;;;;;4896545;29;19934;-64
2023/05/13 07:03:36;;;;;;;;;;;26.40;96.00;;;;;;4911637;29;20161;-64
2023/05/13 07:06:03;;;;;;;;;;;26.20;95.20;;;;;;4896331;29;20400;-64
2023/05/13 07:08:28;;;;;;;;;;;26.20;94.70;;;;;;4912557;29;20018;-64
2023/05/13 07:10:54;;;;;;;;;;;26.20;95.30;;;;;;4897800;29;20409;-64
2023/05/13 07:13:19;;;;;;;;;;;26.30;95.80;;;;;;4912507;29;19934;-64
2023/05/13 07:15:46;;;;;;;;;;;26.60;96.00;;;;;;4897314;29;19934;-64
2023/05/13 07:18:11;;;;;;;;;;;26.80;94.20;;;;;;4896789;29;19927;-64
2023/05/13 07:20:37;;;;;;;;;;;27.10;96.00;;;;;;4896191;29;19960;-64
2023/05/13 07:23:02;;;;;;;;;;;27.30;95.70;;;;;;4912468;29;20036;-64
2023/05/13 07:25:28;;;;;;;;;;;27.40;95.30;;;;;;4912321;29;20022;-64
2023/05/13 07:27:54;;;;;;;;;;;27.40;93.30;;;;;;4897157;29;20476;-64
2023/05/13 07:30:19;;;;;;;;;;;27.60;93.10;;;;;;4897437;29;19934;-64
2023/05/13 07:32:45;;;;;;;;;;;27.70;94.30;;;;;;4897248;29;20018;-64
2023/05/13 07:35:11;;;;;;;;;;;27.80;94.60;;;;;;4897453;29;20358;-64
2023/05/13 07:37:36;;;;;;;;;;;27.70;94.00;;;;;;4897077;29;20141;-67
2023/05/13 07:40:03;;;;;;;;;;;28.00;92.70;;;;;;4897500;29;19983;-64
2023/05/13 07:42:28;;;;;;;;;;;28.20;91.50;;;;;;4897301;29;19927;-65
2023/05/13 07:44:55;;;;;;;;;;;28.20;92.00;;;;;;4897176;29;19927;-64
2023/05/13 07:47:20;;;;;;;;;;;28.10;91.50;;;;;;4897170;29;19982;-64
2023/05/13 07:49:46;;;;;;;;;;;28.20;91.70;;;;;;4896033;29;19994;-64
2023/05/13 07:52:11;;;;;;;;;;;28.20;91.80;;;;;;4897198;29;19982;-64
2023/05/13 07:54:37;;;;;;;;;;;28.40;91.90;;;;;;4895921;29;19934;-65
2023/05/13 07:57:03;;;;;;;;;;;28.70;91.00;;;;;;4895852;29;19932;-64
2023/05/13 07:59:28;;;;;;;;;;;28.80;91.00;;;;;;4896109;29;19927;-64
2023/05/13 08:01:54;;;;;;;;;;;28.90;90.60;;;;;;4896315;29;19982;-63
2023/05/13 08:04:19;;;;;;;;;;;29.10;90.50;;;;;;4896035;29;19928;-64
2023/05/13 08:06:45;;;;;;;;;;;29.20;89.80;;;;;;4896541;29;19950;-64
2023/05/13 08:09:11;;;;;;;;;;;29.00;90.90;;;;;;4897222;29;19927;-64
2023/05/13 08:11:37;;;;;;;;;;;29.20;91.10;;;;;;4898279;29;19935;-65
2023/05/13 08:14:03;;;;;;;;;;;29.60;91.00;;;;;;4900790;29;19927;-65
2023/05/13 08:16:29;;;;;;;;;;;29.90;90.80;;;;;;4900164;29;20270;-63
2023/05/13 08:18:54;;;;;;;;;;;29.60;89.40;;;;;;4900586;29;19933;-63
2023/05/13 08:21:20;;;;;;;;;;;29.50;90.80;;;;;;4900996;29;19983;-64
2023/05/13 08:23:45;;;;;;;;;;;29.70;91.10;;;;;;4900243;29;19983;-63
2023/05/13 08:26:11;;;;;;;;;;;29.90;90.50;;;;;;4900909;29;19928;-64
2023/05/13 08:28:37;;;;;;;;;;;30.00;88.60;;;;;;4900844;29;19943;-64
2023/05/13 08:31:02;;;;;;;;;;;30.20;90.80;;;;;;4900530;29;19950;-64
2023/05/13 08:33:28;;;;;;;;;;;30.00;87.90;;;;;;4899555;29;19971;-69
2023/05/13 08:35:55;;;;;;;;;;;29.80;89.20;;;;;;4899059;29;19983;-63
2023/05/13 08:38:21;;;;;;;;;;;29.50;87.90;;;;;;4900582;29;19928;-63
2023/05/13 08:40:46;;;;;;;;;;;29.60;89.80;;;;;;4900291;29;20267;-63
2023/05/13 08:43:13;;;;;;;;;;;29.40;89.30;;;;;;4900557;29;19927;-63
2023/05/13 08:45:40;;;;;;;;;;;29.50;90.00;;;;;;4900392;29;19927;-63
2023/05/13 08:48:06;;;;;;;;;;;29.40;88.90;;;;;;4898892;29;19930;-64
2023/05/13 08:50:32;;;;;;;;;;;29.30;88.70;;;;;;4883703;29;19935;-64
2023/05/13 08:52:59;;;;;;;;;;;29.20;88.50;;;;;;4900097;29;19928;-64
2023/05/13 08:55:25;;;;;;;;;;;28.90;88.30;;;;;;4883798;29;19977;-63
2023/05/13 08:57:51;;;;;;;;;;;28.70;88.30;;;;;;4899661;29;19931;-63
2023/05/13 09:00:16;;;;;;;;;;;28.80;89.00;;;;;;4900492;29;19928;-63
2023/05/13 09:02:42;;;;;;;;;;;29.10;88.80;;;;;;4899176;29;19927;-63
2023/05/13 09:05:08;;;;;;;;;;;29.20;87.60;;;;;;4898812;29;19924;-64
2023/05/13 09:07:34;;;;;;;;;;;29.40;86.50;;;;;;4899982;29;19931;-64
2023/05/13 09:10:00;;;;;;;;;;;29.50;88.20;;;;;;4897295;29;19934;-64
2023/05/13 09:12:45;;;;;;;;;;;29.10;85.70;;;;;;4898955;29;20026;-62
2023/05/13 09:15:12;;;;;;;;;;;28.90;86.30;;;;;;4899412;29;20035;-64
2023/05/13 09:17:38;;;;;;;;;;;28.90;87.50;;;;;;4898310;29;20026;-63
2023/05/13 09:20:08;;;;;;;;;;;28.80;86.90;;;;;;4898226;29;19927;-66
2023/05/13 09:22:50;;;;;;;;;;;28.80;88.60;;;;;;4883171;29;19927;-66
2023/05/13 09:25:17;;;;;;;;;;;28.90;90.00;;;;;;4898775;29;19927;-65
2023/05/13 09:27:44;;;;;;;;;;;29.00;89.90;;;;;;4898256;29;20026;-65
2023/05/13 09:30:10;;;;;;;;;;;29.10;90.00;;;;;;4899138;29;19974;-64
2023/05/13 09:32:36;;;;;;;;;;;29.10;89.90;;;;;;4896482;29;19982;-64
2023/05/13 09:35:15;;;;;;;;;;;29.30;90.10;;;;;;4881137;29;19928;-64
2023/05/13 09:37:45;;;;;;;;;;;29.40;88.40;;;;;;4896811;29;19956;-65
2023/05/13 09:40:14;;;;;;;;;;;29.50;89.20;;;;;;4898485;29;19938;-64
2023/05/13 09:42:41;;;;;;;;;;;29.30;87.90;;;;;;4899260;29;19983;-64
2023/05/13 09:45:07;;;;;;;;;;;28.90;89.30;;;;;;4898043;29;19928;-64
2023/05/13 09:47:34;;;;;;;;;;;28.50;90.20;;;;;;4899362;29;19927;-64
2023/05/13 09:50:00;;;;;;;;;;;27.90;90.20;;;;;;4898466;29;19935;-64
2023/05/13 09:52:28;;;;;;;;;;;27.50;90.80;;;;;;4899362;29;19927;-63
2023/05/13 09:54:55;;;;;;;;;;;27.10;90.80;;;;;;4897856;29;19932;-67
2023/05/13 09:57:20;;;;;;;;;;;26.70;91.30;;;;;;4913856;29;20002;-63
2023/05/13 09:59:46;;;;;;;;;;;26.50;91.40;;;;;;4882240;29;19963;-63
2023/05/13 10:02:14;;;;;;;;;;;26.40;91.70;;;;;;4898045;29;19935;-62
2023/05/13 10:04:40;;;;;;;;;;;26.10;91.90;;;;;;4897051;29;20293;-63
2023/05/13 10:07:06;;;;;;;;;;;25.80;91.20;;;;;;4897131;29;19934;-63
2023/05/13 10:09:34;;;;;;;;;;;25.70;91.90;;;;;;4895261;29;19928;-63
2023/05/13 10:12:01;;;;;;;;;;;25.80;92.10;;;;;;4913172;29;20027;-61
2023/05/13 10:14:27;;;;;;;;;;;25.50;92.00;;;;;;4897749;29;19970;-63
2023/05/13 10:16:52;;;;;;;;;;;25.40;92.60;;;;;;4882398;29;19970;-63
2023/05/13 10:19:18;;;;;;;;;;;25.20;91.70;;;;;;4898332;29;20027;-64
2023/05/13 10:21:44;;;;;;;;;;;25.20;92.10;;;;;;4897257;29;19934;-63
2023/05/13 10:24:10;;;;;;;;;;;25.20;92.60;;;;;;4897254;29;19934;-65
2023/05/13 10:26:36;;;;;;;;;;;25.30;92.60;;;;;;4897652;29;19962;-65
2023/05/13 10:29:02;;;;;;;;;;;25.20;91.90;;;;;;4898212;29;19934;-65
2023/05/13 10:31:28;;;;;;;;;;;25.10;92.20;;;;;;4896997;29;19982;-63
2023/05/13 10:33:54;;;;;;;;;;;25.00;92.40;;;;;;4897557;29;20031;-65
2023/05/13 10:36:40;;;;;;;;;;;24.90;91.60;;;;;;4912892;29;20530;-64
2023/05/13 10:39:22;;;;;;;;;;;24.80;92.50;;;;;;4897002;29;19978;-64
2023/05/13 10:42:06;;;;;;;;;;;24.90;93.00;;;;;;4898185;29;19927;-64
2023/05/13 10:44:32;;;;;;;;;;;24.90;91.90;;;;;;4913020;29;19927;-63
2023/05/13 10:46:57;;;;;;;;;;;24.80;92.60;;;;;;4896975;29;20008;-64
2023/05/13 10:49:28;;;;;;;;;;;24.70;92.20;;;;;;4896899;29;19975;-64
2023/05/13 10:52:02;;;;;;;;;;;24.70;92.70;;;;;;4897973;29;19931;-64
2023/05/13 10:54:35;;;;;;;;;;;24.70;92.60;;;;;;4881730;29;19927;-64
2023/05/13 10:57:01;;;;;;;;;;;24.80;93.20;;;;;;4896761;29;19927;-67
2023/05/13 10:59:29;;;;;;;;;;;24.90;92.60;;;;;;4896790;29;20275;-64
2023/05/13 11:01:55;;;;;;;;;;;24.90;92.90;;;;;;4896216;29;19927;-64
2023/05/13 11:04:21;;;;;;;;;;;25.00;93.30;;;;;;4897736;29;19928;-64
2023/05/13 11:06:49;;;;;;;;;;;24.80;93.30;;;;;;4897511;29;19935;-65
2023/05/13 11:09:21;;;;;;;;;;;24.60;93.90;;;;;;4881143;29;19935;-65
2023/05/13 11:11:47;;;;;;;;;;;24.70;94.40;;;;;;4896887;29;20022;-66
2023/05/13 11:14:17;;;;;;;;;;;24.80;94.20;;;;;;4896340;29;20005;-63
2023/05/13 11:16:46;;;;;;;;;;;24.50;94.30;;;;;;4880720;29;19927;-65
2023/05/13 11:19:38;;;;;;;;;;;24.40;95.30;;;;;;4879632;29;19934;-65
2023/05/13 11:22:07;;;;;;;;;;;24.40;95.30;;;;;;4895662;29;19931;-67
2023/05/13 11:24:33;;;;;;;;;;;24.30;95.40;;;;;;4896727;29;19931;-64
2023/05/13 11:27:10;;;;;;;;;;;24.10;95.20;;;;;;4897539;29;20023;-65
2023/05/13 11:29:37;;;;;;;;;;;24.10;95.70;;;;;;4896497;29;19934;-63
2023/05/13 11:32:04;;;;;;;;;;;24.10;95.60;;;;;;4897275;29;19943;-64
2023/05/13 11:34:30;;;;;;;;;;;24.10;95.80;;;;;;4897014;29;19927;-63
2023/05/13 11:37:04;;;;;;;;;;;24.10;95.50;;;;;;4881000;29;19927;-63
2023/05/13 11:39:31;;;;;;;;;;;23.80;95.80;;;;;;4897422;29;19934;-64
2023/05/13 11:42:00;;;;;;;;;;;23.80;96.00;;;;;;4895535;29;19950;-71
2023/05/13 11:44:26;;;;;;;;;;;23.80;96.00;;;;;;4895992;29;19927;-71
2023/05/13 11:46:58;;;;;;;;;;;23.60;96.20;;;;;;4879814;29;20290;-71
2023/05/13 11:49:33;;;;;;;;;;;23.50;96.70;;;;;;4880402;29;20309;-70
2023/05/13 11:51:59;;;;;;;;;;;23.50;96.80;;;;;;4911861;29;20471;-69
2023/05/13 11:54:26;;;;;;;;;;;23.50;96.50;;;;;;4911837;29;19947;-70
2023/05/13 11:56:51;;;;;;;;;;;23.50;96.40;;;;;;4897452;29;20014;-70
2023/05/13 11:59:17;;;;;;;;;;;23.40;96.10;;;;;;4895831;29;19982;-70
2023/05/13 12:01:42;;;;;;;;;;;23.50;96.60;;;;;;4880112;29;19943;-70
2023/05/13 12:04:08;;;;;;;;;;;23.40;97.10;;;;;;4897146;29;19976;-70
2023/05/13 12:06:34;;;;;;;;;;;23.40;97.40;;;;;;4864696;29;19928;-70
2023/05/13 12:09:06;;;;;;;;;;;23.40;97.70;;;;;;4896464;29;19927;-71
2023/05/13 12:11:32;;;;;;;;;;;23.40;97.40;;;;;;4897253;29;19975;-70
2023/05/13 12:13:58;;;;;;;;;;;23.20;97.20;;;;;;4895921;29;20018;-70
2023/05/13 12:16:24;;;;;;;;;;;23.10;96.70;;;;;;4895627;29;20036;-70
2023/05/13 12:18:55;;;;;;;;;;;23.10;97.00;;;;;;4880603;29;19935;-70
2023/05/13 12:21:21;;;;;;;;;;;23.00;97.10;;;;;;4880389;29;19934;-70
2023/05/13 12:23:46;;;;;;;;;;;23.10;98.00;;;;;;4911826;29;20010;-71
2023/05/13 12:26:12;;;;;;;;;;;23.10;97.70;;;;;;4880435;29;20244;-69
2023/05/13 12:28:37;;;;;;;;;;;23.10;97.60;;;;;;4911338;29;19989;-70
2023/05/13 12:31:04;;;;;;;;;;;23.00;97.50;;;;;;4897167;29;20281;-70
2023/05/13 12:33:31;;;;;;;;;;;23.10;97.40;;;;;;4895764;29;19934;-71
2023/05/13 12:36:16;;;;;;;;;;;23.00;97.60;;;;;;4895649;29;19927;-68
2023/05/13 12:38:55;;;;;;;;;;;23.00;97.90;;;;;;4911820;29;19935;-71
2023/05/13 12:41:21;;;;;;;;;;;23.10;98.20;;;;;;4895753;29;19982;-73
2023/05/13 12:43:47;;;;;;;;;;;23.20;98.30;;;;;;4895840;29;20369;-70
2023/05/13 12:46:13;;;;;;;;;;;23.20;98.40;;;;;;4880238;29;19937;-67
2023/05/13 12:48:38;;;;;;;;;;;23.20;97.80;;;;;;4894904;29;19942;-68
2023/05/13 12:51:04;;;;;;;;;;;23.20;97.30;;;;;;4896880;29;19992;-68
2023/05/13 12:53:29;;;;;;;;;;;23.10;96.50;;;;;;4895289;29;19942;-67
2023/05/13 12:55:55;;;;;;;;;;;23.00;96.40;;;;;;4879837;29;19927;-68
2023/05/13 12:58:21;;;;;;;;;;;23.10;96.60;;;;;;4913411;29;19974;-67
2023/05/13 13:00:46;;;;;;;;;;;22.80;97.10;;;;;;4883754;29;20382;-67
2023/05/13 13:03:12;;;;;;;;;;;22.90;97.30;;;;;;4900372;29;20301;-67
2023/05/13 13:05:38;;;;;;;;;;;22.90;96.90;;;;;;4913974;29;20142;-67
2023/05/13 13:08:04;;;;;;;;;;;22.90;97.10;;;;;;4899404;29;19932;-70
2023/05/13 13:10:30;;;;;;;;;;;22.90;97.20;;;;;;4914448;29;19935;-68
2023/05/13 13:12:55;;;;;;;;;;;22.90;97.40;;;;;;4899143;29;20027;-69
2023/05/13 13:15:21;;;;;;;;;;;23.00;97.30;;;;;;4914454;29;19987;-67
2023/05/13 13:17:46;;;;;;;;;;;23.00;97.50;;;;;;4898950;29;19928;-67
2023/05/13 13:20:12;;;;;;;;;;;23.00;97.20;;;;;;4914725;29;19924;-67
2023/05/13 13:22:38;;;;;;;;;;;23.00;97.20;;;;;;4883011;29;20321;-68
2023/05/13 13:25:04;;;;;;;;;;;23.00;96.80;;;;;;4883194;29;19931;-67
2023/05/13 13:27:30;;;;;;;;;;;23.00;96.70;;;;;;4899263;29;20305;-67
2023/05/13 13:29:55;;;;;;;;;;;23.00;96.50;;;;;;4882695;29;20018;-67
2023/05/13 13:32:21;;;;;;;;;;;22.90;96.00;;;;;;4898805;29;20027;-69
2023/05/13 13:34:47;;;;;;;;;;;22.90;96.10;;;;;;4914533;29;19928;-67
2023/05/13 13:37:12;;;;;;;;;;;23.00;96.30;;;;;;4899597;29;20101;-67
2023/05/13 13:39:38;;;;;;;;;;;23.00;95.30;;;;;;4913781;29;19928;-67
2023/05/13 13:42:03;;;;;;;;;;;23.00;95.70;;;;;;4882997;29;19979;-67
2023/05/13 13:44:30;;;;;;;;;;;22.90;94.80;;;;;;4898179;29;19934;-67
2023/05/13 13:46:55;;;;;;;;;;;22.80;95.50;;;;;;4898209;29;19935;-67
2023/05/13 13:49:22;;;;;;;;;;;22.70;94.60;;;;;;4899187;29;19927;-68
2023/05/13 13:51:47;;;;;;;;;;;22.70;94.90;;;;;;4913567;29;19934;-66
2023/05/13 13:54:13;;;;;;;;;;;22.60;93.80;;;;;;4898500;29;20297;-66
2023/05/13 13:56:38;;;;;;;;;;;22.50;93.30;;;;;;4913851;29;20446;-66
2023/05/13 13:59:04;;;;;;;;;;;22.60;94.00;;;;;;4899146;29;19927;-67
2023/05/13 14:01:30;;;;;;;;;;;22.60;94.40;;;;;;4897710;29;20342;-66
2023/05/13 14:04:14;;;;;;;;;;;22.60;94.20;;;;;;4898053;29;20076;-67
2023/05/13 14:06:41;;;;;;;;;;;22.50;94.80;;;;;;4897554;29;19934;-66
2023/05/13 14:09:07;;;;;;;;;;;22.40;93.90;;;;;;4881471;29;19927;-67
2023/05/13 14:11:32;;;;;;;;;;;22.40;94.50;;;;;;4882141;29;19927;-66
2023/05/13 14:13:58;;;;;;;;;;;22.30;94.60;;;;;;4898018;29;20022;-66
2023/05/13 14:16:24;;;;;;;;;;;22.40;94.80;;;;;;4913818;29;19934;-66